Latest Coastal Weather Observations for Swanbourne

IDW60701

Issued at 1:52 pm WST Monday 27 June 2016 (issued every 10 minutes, with the page automatically refreshed every 10 minutes)

About coastal observations | Map of coastal stations | Coastal observations for WA | Marine services | Other Formats
Station Details ID: 009215 Name: SWANBOURNE Lat: -31.96 Lon: 115.76 Height: 40.96 m
Data from the previous 72 hours. | See also: Recent months at Swanbourne
Date/Time
WST
Temp
°C
Wind Pressure Rain since
9am
mm
Weather Cloud Vis
km
Sea
Height
m
Swell
Dir  Spd
kts
Gust
kts
hPa Trend Height
m
Period
s
Dir
27/01:30pm 16.9 N 9 16 - - 0.0 - - - - - - -
27/01:00pm 17.4 N 8 13 - - 0.0 - - - - - - -
27/12:30pm 16.3 N 11 18 - - 0.0 - - - - - - -
27/12:00pm 16.6 N 8 16 - - 0.0 - - - - - - -
27/11:30am 16.3 N 9 18 - - 0.0 - - - - - - -
27/11:00am 15.3 N 11 20 - - 0.0 - - - - - - -
27/10:30am 14.8 N 9 15 - - 0.0 - - - - - - -
27/10:00am 14.0 NNE 9 14 - - 0.0 - - - - - - -
27/09:30am 12.8 NNE 9 17 - - 0.0 - - - - - - -
27/09:00am 11.8 NNE 11 17 - - 0.0 - - - - - - -
27/08:30am 10.7 NNE 8 14 - - 0.0 - - - - - - -
27/08:00am 9.2 NNE 6 11 - - 0.0 - - - - - - -
27/07:30am 9.3 NNE 7 11 - - 0.0 - - - - - - -
27/07:00am 8.6 NNE 6 10 - - 0.0 - - - - - - -
27/06:30am 9.0 NNE 7 9 - - 0.0 - - - - - - -
27/06:00am 9.4 N 5 9 - - 0.0 - - - - - - -
27/05:30am 9.8 NE 11 16 - - 0.0 - - - - - - -
27/05:00am 9.7 NE 9 15 - - 0.0 - - - - - - -
27/04:30am 9.7 NE 9 15 - - 0.0 - - - - - - -
27/04:00am 10.0 NE 10 15 - - 0.0 - - - - - - -
27/03:30am 10.0 NE 9 13 - - 0.0 - - - - - - -
27/03:00am 10.1 NE 9 14 - - 0.0 - - - - - - -
27/02:30am 10.2 NE 8 13 - - 0.0 - - - - - - -
27/02:00am 10.5 NE 7 11 - - 0.0 - - - - - - -
27/01:30am 10.6 NNE 6 11 - - 0.0 - - - - - - -
27/01:00am 11.1 NNE 5 9 - - 0.0 - - - - - - -
27/12:30am 11.8 N 5 8 - - 0.0 - - - - - - -
27/12:00am 12.1 NNE 6 9 - - 0.0 - - - - - - -
 
Date/Time
WST
Temp
°C
Wind Pressure Rain since
9am
mm
Weather Cloud Vis
km
Sea
Height
m
Swell
Dir  Spd
kts
Gust
kts
hPa Trend Height
m
Period
s
Dir
26/11:30pm 12.2 NNE 5 8 - - 0.0 - - - - - - -
26/11:00pm 12.3 NNE 5 7 - - 0.0 - - - - - - -
26/10:30pm 13.3 NNE 4 7 - - 0.0 - - - - - - -
26/10:00pm 13.8 NNE 4 7 - - 0.0 - - - - - - -
26/09:30pm 14.2 N 5 7 - - 0.0 - - - - - - -
26/09:00pm 14.4 N 4 7 - - 0.0 - - - - - - -
26/08:30pm 14.5 N 4 6 - - 0.0 - - - - - - -
26/08:00pm 14.6 N 4 6 - - 0.0 - - - - - - -
26/07:30pm 14.8 N 3 4 - - 0.0 - - - - - - -
26/07:00pm 14.5 NNE 3 4 - - 0.0 - - - - - - -
26/06:30pm 14.4 N 4 6 - - 0.0 - - - - - - -
26/06:00pm 15.0 N 4 6 - - 0.0 - - - - - - -
26/05:30pm 15.2 N 3 5 - - 0.0 - - - - - - -
26/05:00pm 15.7 NNW 5 7 - - 0.0 - - - - - - -
26/04:30pm 16.7 NW 7 10 - - 0.0 - - - - - - -
26/04:00pm 17.2 NW 7 10 - - 0.0 - - - - - - -
26/03:30pm 17.0 NNW 7 10 - - 0.0 - - - - - - -
26/03:00pm 17.3 NNW 6 10 - - 0.0 - - - - - - -
26/02:30pm 17.4 NNW 7 11 - - 0.0 - - - - - - -
26/02:00pm 16.9 NNW 8 11 - - 0.0 - - - - - - -
26/01:30pm 17.1 NW 8 12 - - 0.0 - - - - - - -
26/01:00pm 16.6 NW 7 10 - - 0.0 - - - - - - -
26/12:30pm 16.3 NW 7 10 - - 0.0 - - - - - - -
26/12:00pm 15.9 NNW 7 9 - - 0.0 - - - - - - -
26/11:30am 16.2 N 6 9 - - 0.0 - - - - - - -
26/11:00am 15.2 N 6 9 - - 0.0 - - - - - - -
26/10:30am 14.2 NNE 6 9 - - 0.0 - - - - - - -
26/10:00am 13.5 NNE 6 10 - - 0.0 - - - - - - -
26/09:30am 11.9 NNE 5 10 - - 0.0 - - - - - - -
26/09:00am 10.8 NNE 4 8 - - 3.2 - - - - - - -
26/08:30am 9.9 NE 3 6 - - 3.2 - - - - - - -
26/08:00am 7.3 ENE 6 9 - - 3.2 - - - - - - -
26/07:30am 6.7 ENE 5 9 - - 3.2 - - - - - - -
26/07:00am 5.9 ENE 6 8 - - 3.2 - - - - - - -
26/06:30am 6.0 ENE 7 10 - - 3.2 - - - - - - -
26/06:00am 6.5 ENE 7 9 - - 3.2 - - - - - - -
26/05:30am 7.2 ENE 6 7 - - 3.2 - - - - - - -
26/05:00am 7.5 ENE 6 9 - - 3.2 - - - - - - -
26/04:30am 7.4 ENE 5 7 - - 3.2 - - - - - - -
26/04:00am 7.1 ENE 6 7 - - 3.2 - - - - - - -
26/03:30am 7.2 ENE 6 7 - - 3.2 - - - - - - -
26/03:00am 7.5 ENE 6 7 - - 3.2 - - - - - - -
26/02:30am 8.0 ENE 6 7 - - 3.2 - - - - - - -
26/02:00am 8.0 ENE 5 7 - - 3.2 - - - - - - -
26/01:30am 7.8 ENE 6 7 - - 3.2 - - - - - - -
26/01:00am 8.1 E 6 7 - - 3.2 - - - - - - -
26/12:30am 8.4 ENE 6 7 - - 3.2 - - - - - - -
26/12:00am 8.8 ENE 6 7 - - 3.2 - - - - - - -
 
Date/Time
WST
Temp
°C
Wind Pressure Rain since
9am
mm
Weather Cloud Vis
km
Sea
Height
m
Swell
Dir  Spd
kts
Gust
kts
hPa Trend Height
m
Period
s
Dir
25/11:30pm 9.0 ENE 6 6 - - 3.2 - - - - - - -
25/11:00pm 9.9 E 6 7 - - 3.2 - - - - - - -
25/10:30pm 10.0 ESE 6 7 - - 3.2 - - - - - - -
25/10:00pm 10.5 ESE 6 7 - - 3.2 - - - - - - -
25/09:30pm 11.2 ESE 5 6 - - 3.2 - - - - - - -
25/09:00pm 11.9 SE 5 6 - - 3.2 - - - - - - -
25/08:30pm 11.9 SSE 5 7 - - 3.2 - - - - - - -
25/08:00pm 12.1 SSE 5 6 - - 3.2 - - - - - - -
25/07:30pm 12.6 SSE 4 5 - - 3.2 - - - - - - -
25/07:00pm 12.0 S 5 6 - - 3.2 - - - - - - -
25/06:30pm 12.5 SSE 6 7 - - 3.2 - - - - - - -
25/06:00pm 12.8 SSE 5 6 - - 3.2 - - - - - - -
25/05:30pm 13.4 S 6 9 - - 3.2 - - - - - - -
25/05:00pm 13.9 S 6 9 - - 3.2 - - - - - - -
25/04:30pm 14.9 S 10 15 - - 3.2 - - - - - - -
25/04:00pm 15.4 S 9 15 - - 3.2 - - - - - - -
25/03:30pm 15.6 SSW 11 17 - - 3.2 - - - - - - -
25/03:00pm 15.9 S 9 15 - - 3.2 - - - - - - -
25/02:30pm 16.0 SSW 11 16 - - 3.2 - - - - - - -
25/02:00pm 15.8 SSW 9 15 - - 3.2 - - - - - - -
25/01:30pm 16.1 SSW 9 15 - - 3.2 - - - - - - -
25/01:00pm 15.7 S 8 12 - - 3.2 - - - - - - -
25/12:30pm 15.0 SSE 6 11 - - 3.2 - - - - - - -
25/12:00pm 13.9 SSE 6 10 - - 3.2 - - - - - - -
25/11:30am 12.8 SE 5 8 - - 3.2 - - - - - - -
25/11:00am 12.4 ESE 6 9 - - 3.2 - - - - - - -
25/10:30am 12.5 SSE 9 15 - - 3.0 - - - - - - -
25/10:00am 12.6 E 4 6 - - 1.2 - - - - - - -
25/09:30am 12.5 W 3 7 - - 0.6 - - - - - - -
25/09:00am 12.6 NNE 3 5 - - 11.4 Recent precip. - - - - - -
25/08:30am 11.8 NNE 2 4 - - 11.4 - - - - - - -
25/08:00am 11.0 N 7 11 - - 10.0 - - - - - - -
25/07:30am 10.8 N 8 14 - - 10.0 - - - - - - -
25/07:00am 10.4 NNE 6 10 - - 7.2 - - - - - - -
25/06:30am 10.9 NNE 6 11 - - 7.2 - - - - - - -
25/06:00am 11.3 N 7 14 - - 7.2 Recent precip. - - - - - -
25/05:30am 11.5 N 12 18 - - 3.8 - - - - - - -
25/05:00am 11.5 N 8 15 - - 3.6 - - - - - - -
25/04:30am 11.9 N 7 12 - - 1.2 - - - - - - -
25/04:00am 12.3 N 10 14 - - 0.6 - - - - - - -
25/03:30am 12.7 N 10 15 - - 0.4 - - - - - - -
25/03:00am 12.9 N 8 12 - - 0.0 - - - - - - -
25/02:30am 12.8 N 8 11 - - 0.0 - - - - - - -
25/02:00am 13.3 N 9 15 - - 0.0 - - - - - - -
25/01:30am 12.6 N 7 10 - - 0.0 - - - - - - -
25/01:00am 12.8 N 6 10 - - 0.0 - - - - - - -
25/12:30am 12.5 NNE 7 11 - - 0.0 - - - - - - -
25/12:00am 12.0 NNE 5 9 - - 0.0 - - - - - - -
 
Date/Time
WST
Temp
°C
Wind Pressure Rain since
9am
mm
Weather Cloud Vis
km
Sea
Height
m
Swell
Dir  Spd
kts
Gust
kts
hPa Trend Height
m
Period
s
Dir
24/11:30pm 12.1 NNE 6 9 - - 0.0 - - - - - - -
24/11:00pm 12.3 NNE 5 8 - - 0.0 - - - - - - -
24/10:30pm 12.4 N 6 8 - - 0.0 - - - - - - -
24/10:00pm 12.5 NNE 6 10 - - 0.0 - - - - - - -
24/09:30pm 12.8 N 6 9 - - 0.0 - - - - - - -
24/09:00pm 13.1 N 5 7 - - 0.0 - - - - - - -
24/08:30pm 13.5 NNE 5 7 - - 0.0 - - - - - - -
24/08:00pm 13.3 NNE 5 6 - - 0.0 - - - - - - -
24/07:30pm 13.7 NNE 4 5 - - 0.0 - - - - - - -
24/07:00pm 14.2 N 4 7 - - 0.0 - - - - - - -
24/06:30pm 14.9 NNW 5 8 - - 0.0 - - - - - - -
24/06:00pm 15.3 NNW 5 6 - - 0.0 - - - - - - -
24/05:30pm 15.0 N 3 5 - - 0.0 - - - - - - -
24/05:00pm 15.4 N 5 7 - - 0.0 - - - - - - -
24/04:30pm 15.3 NNW 5 7 - - 0.0 - - - - - - -
24/04:00pm 16.9 NW 5 7 - - 0.0 - - - - - - -
24/03:30pm 16.5 NNW 4 7 - - 0.0 - - - - - - -
24/03:00pm 16.2 NNW 4 7 - - 0.0 - - - - - - -
24/02:30pm 16.5 NNW 4 8 - - 0.0 - - - - - - -
24/02:00pm 16.5 NNE 4 7 - - 0.0 - - - - - - -

Other Formats:

Comma delimited format used in spreadsheet applications
http://www.bom.gov.au/fwo/IDW60701/IDW60701.94614.axf

JavaScript Object Notation format (JSON) in row-major order
http://www.bom.gov.au/fwo/IDW60701/IDW60701.94614.json